Time;durP1;ratioP1;P1;durP2;ratioP2;P2;SDS_P1;SDS_P2;PMS_P1;PMS_P2;Temp;Humidity;BMP_temperature;BMP_pressure;BME280_temperature;BME280_humidity;BME280_pressure;Samples;Min_cycle;Max_cycle;Signal;HPM_P1;HPM_P2
2023/08/19 00:01:32;;;;;;;24.67;21.95;;;21.50;99.90;;;;;;5043099;28;20248;-70
2023/08/19 00:03:58;;;;;;;24.23;21.80;;;21.50;99.90;;;;;;5044232;28;20045;-71
2023/08/19 00:06:33;;;;;;;24.27;21.65;;;21.50;99.90;;;;;;5045756;28;20045;-71
2023/08/19 00:09:01;;;;;;;24.40;21.90;;;21.50;99.90;;;;;;5047446;28;20517;-71
2023/08/19 00:11:27;;;;;;;26.10;22.27;;;21.40;99.90;;;;;;5042441;28;20062;-70
2023/08/19 00:13:53;;;;;;;24.98;22.40;;;21.40;99.90;;;;;;5044160;28;20033;-70
2023/08/19 00:16:19;;;;;;;25.13;22.50;;;21.40;99.90;;;;;;5044967;28;20414;-70
2023/08/19 00:18:44;;;;;;;24.33;21.90;;;21.40;99.90;;;;;;5044252;28;20049;-70
2023/08/19 00:21:11;;;;;;;25.75;22.88;;;21.40;99.90;;;;;;5047041;28;20040;-70
2023/08/19 00:23:37;;;;;;;26.08;23.27;;;21.40;99.90;;;;;;5043372;28;20704;-70
2023/08/19 00:26:02;;;;;;;26.02;22.67;;;21.40;99.90;;;;;;5047907;28;20037;-71
2023/08/19 00:28:28;;;;;;;28.63;24.27;;;21.30;99.90;;;;;;5045165;28;20096;-69
2023/08/19 00:30:54;;;;;;;24.92;22.33;;;21.30;99.90;;;;;;5045116;28;20033;-70
2023/08/19 00:33:19;;;;;;;26.33;21.77;;;21.30;99.90;;;;;;5045348;28;20078;-70
2023/08/19 00:35:51;;;;;;;24.52;21.33;;;21.30;99.90;;;;;;5044670;28;20850;-70
2023/08/19 00:38:17;;;;;;;23.05;20.63;;;21.20;99.90;;;;;;5045716;28;20065;-70
2023/08/19 00:40:42;;;;;;;25.70;21.77;;;21.20;99.90;;;;;;5045462;28;20533;-69
2023/08/19 00:43:08;;;;;;;24.67;21.80;;;21.20;99.90;;;;;;5045379;28;20075;-70
2023/08/19 00:45:41;;;;;;;26.83;23.48;;;21.20;99.90;;;;;;5044476;28;20045;-70
2023/08/19 00:48:07;;;;;;;26.42;22.30;;;21.20;99.90;;;;;;5057300;28;20037;-69
2023/08/19 00:50:34;;;;;;;25.80;22.90;;;21.20;99.90;;;;;;5044974;28;20053;-70
2023/08/19 00:52:59;;;;;;;22.73;20.25;;;21.10;99.90;;;;;;5043465;28;20045;-70
2023/08/19 00:55:28;;;;;;;24.33;21.83;;;21.10;99.90;;;;;;5045728;28;20090;-70
2023/08/19 00:57:54;;;;;;;23.77;21.17;;;21.10;99.90;;;;;;5043501;28;20070;-70
2023/08/19 01:00:20;;;;;;;26.77;22.98;;;21.10;99.90;;;;;;5043926;28;20049;-70
2023/08/19 01:02:45;;;;;;;25.80;21.80;;;21.10;99.90;;;;;;5042180;28;20433;-70
2023/08/19 01:05:11;;;;;;;25.25;22.55;;;21.10;99.90;;;;;;5043327;28;20125;-70
2023/08/19 01:07:54;;;;;;;24.20;20.33;;;21.10;99.90;;;;;;5027187;28;20040;-70
2023/08/19 01:10:27;;;;;;;23.42;20.92;;;21.10;99.90;;;;;;5043045;28;20418;-70
2023/08/19 01:13:04;;;;;;;24.90;21.17;;;21.10;99.90;;;;;;5044696;28;20053;-69
2023/08/19 01:15:34;;;;;;;25.95;21.33;;;21.00;99.90;;;;;;5045154;28;20052;-69
2023/08/19 01:18:03;;;;;;;23.93;21.40;;;21.00;99.90;;;;;;5027560;28;20041;-70
2023/08/19 01:20:31;;;;;;;25.65;22.65;;;21.00;99.90;;;;;;5042573;28;20045;-69
2023/08/19 01:23:03;;;;;;;25.42;22.63;;;21.00;99.90;;;;;;5025814;28;20052;-70
2023/08/19 01:25:31;;;;;;;24.48;21.23;;;21.00;99.90;;;;;;5042889;28;20074;-70
2023/08/19 01:27:56;;;;;;;22.92;20.40;;;21.00;99.90;;;;;;5023580;28;20125;-70
2023/08/19 01:30:23;;;;;;;24.88;22.20;;;21.00;99.90;;;;;;5042599;28;20144;-70
2023/08/19 01:32:49;;;;;;;24.10;21.50;;;21.00;99.90;;;;;;5026606;28;20048;-70
2023/08/19 01:35:17;;;;;;;24.77;20.98;;;20.90;99.90;;;;;;5042857;28;20090;-69
2023/08/19 01:37:47;;;;;;;25.90;22.80;;;20.90;99.90;;;;;;5041862;28;20125;-70
2023/08/19 01:40:14;;;;;;;24.42;21.55;;;20.90;99.90;;;;;;5042881;28;20052;-69
2023/08/19 01:42:41;;;;;;;23.80;20.23;;;20.90;99.90;;;;;;5041400;28;20091;-70
2023/08/19 01:45:08;;;;;;;23.65;20.50;;;20.90;99.90;;;;;;5043341;28;20048;-70
2023/08/19 01:47:39;;;;;;;23.50;21.00;;;20.90;99.90;;;;;;5039950;28;20546;-70
2023/08/19 01:50:06;;;;;;;23.70;20.25;;;20.90;99.90;;;;;;5043259;28;20057;-70
2023/08/19 01:52:32;;;;;;;23.42;20.83;;;20.90;99.90;;;;;;5028018;28;20259;-70
2023/08/19 01:54:58;;;;;;;26.30;22.20;;;20.90;99.90;;;;;;5041242;28;20136;-70
2023/08/19 01:57:27;;;;;;;24.00;21.40;;;20.90;99.90;;;;;;5046185;28;20532;-71
2023/08/19 01:59:56;;;;;;;28.05;23.73;;;20.90;99.90;;;;;;5045203;28;20072;-70
2023/08/19 02:02:23;;;;;;;25.85;22.48;;;20.80;99.90;;;;;;5046618;28;20048;-70
2023/08/19 02:04:49;;;;;;;25.65;21.95;;;20.80;99.90;;;;;;5046443;28;20429;-70
2023/08/19 02:07:15;;;;;;;26.95;23.30;;;20.80;99.90;;;;;;5044452;28;20044;-70
2023/08/19 02:09:41;;;;;;;28.73;23.10;;;20.80;99.90;;;;;;5045124;28;20044;-70
2023/08/19 02:12:07;;;;;;;25.48;22.85;;;20.80;99.90;;;;;;5046286;28;20048;-70
2023/08/19 02:14:33;;;;;;;24.83;22.27;;;20.80;99.90;;;;;;5045906;28;20045;-70
2023/08/19 02:16:59;;;;;;;24.02;21.52;;;20.80;99.90;;;;;;5043106;28;20060;-70
2023/08/19 02:19:25;;;;;;;22.95;20.55;;;20.80;99.90;;;;;;5043222;28;20541;-70
2023/08/19 02:21:51;;;;;;;22.77;20.02;;;20.70;99.90;;;;;;5044634;28;20048;-70
2023/08/19 02:24:17;;;;;;;22.55;19.80;;;20.70;99.90;;;;;;5027660;28;20497;-70
2023/08/19 02:26:43;;;;;;;25.30;21.83;;;20.80;99.90;;;;;;5028031;28;20041;-70
2023/08/19 02:29:09;;;;;;;23.88;19.83;;;20.70;99.90;;;;;;5044626;28;20766;-69
2023/08/19 02:31:36;;;;;;;24.38;20.52;;;20.70;99.90;;;;;;5043944;28;20037;-69
2023/08/19 02:34:02;;;;;;;23.58;20.83;;;20.70;99.90;;;;;;5028025;28;20056;-70
2023/08/19 02:36:28;;;;;;;23.98;21.02;;;20.70;99.90;;;;;;5028241;28;20049;-70
2023/08/19 02:38:53;;;;;;;25.73;21.50;;;20.70;99.90;;;;;;5045024;28;20044;-70
2023/08/19 02:41:19;;;;;;;22.10;19.88;;;20.70;99.90;;;;;;5044273;28;20045;-70
2023/08/19 02:43:45;;;;;;;24.17;21.58;;;20.70;99.90;;;;;;5044360;28;20041;-70
2023/08/19 02:46:10;;;;;;;24.83;20.90;;;20.70;99.90;;;;;;5027696;28;20048;-69
2023/08/19 02:48:36;;;;;;;24.38;21.77;;;20.70;99.90;;;;;;5045645;28;20033;-70
2023/08/19 02:51:02;;;;;;;28.17;22.80;;;20.70;99.90;;;;;;5027977;28;20490;-70
2023/08/19 02:53:28;;;;;;;25.63;22.05;;;20.60;99.90;;;;;;5043814;28;20608;-70
2023/08/19 02:55:54;;;;;;;24.08;21.52;;;20.70;99.90;;;;;;5037851;28;20049;-70
2023/08/19 02:58:21;;;;;;;28.50;23.73;;;20.60;99.90;;;;;;5038135;28;20049;-70
2023/08/19 03:00:49;;;;;;;26.65;23.02;;;20.60;99.90;;;;;;5043596;28;20079;-70
2023/08/19 03:03:15;;;;;;;25.70;22.92;;;20.60;99.90;;;;;;5045438;28;20413;-70
2023/08/19 03:05:42;;;;;;;26.88;21.70;;;20.60;99.90;;;;;;5044140;28;20051;-70
2023/08/19 03:08:09;;;;;;;25.65;21.08;;;20.60;99.90;;;;;;5043962;28;20114;-70
2023/08/19 03:10:36;;;;;;;25.60;22.92;;;20.50;99.90;;;;;;5027070;28;20045;-68
2023/08/19 03:13:06;;;;;;;23.92;21.42;;;20.50;99.90;;;;;;5046112;28;20063;-71
2023/08/19 03:15:33;;;;;;;25.30;22.60;;;20.50;99.90;;;;;;5038363;28;20445;-71
2023/08/19 03:17:59;;;;;;;25.42;22.67;;;20.50;99.90;;;;;;5045287;28;20821;-70
2023/08/19 03:20:24;;;;;;;25.67;22.88;;;20.50;99.90;;;;;;5031928;28;20120;-71
2023/08/19 03:22:50;;;;;;;29.48;22.30;;;20.50;99.90;;;;;;5030926;28;20045;-71
2023/08/19 03:25:16;;;;;;;24.10;21.50;;;20.50;99.90;;;;;;5039412;28;20049;-71
2023/08/19 03:27:42;;;;;;;25.30;21.40;;;20.50;99.90;;;;;;5032249;28;20048;-71
2023/08/19 03:30:08;;;;;;;26.10;22.80;;;20.50;99.90;;;;;;5052818;28;20044;-70
2023/08/19 03:32:34;;;;;;;26.15;23.10;;;20.50;99.90;;;;;;5037569;28;20045;-70
2023/08/19 03:35:00;;;;;;;24.65;22.00;;;20.40;99.90;;;;;;5034568;28;20418;-70
2023/08/19 03:37:26;;;;;;;24.67;22.05;;;20.40;99.90;;;;;;5047865;28;20083;-70
2023/08/19 03:39:52;;;;;;;26.13;21.45;;;20.50;99.90;;;;;;5047754;28;20052;-70
2023/08/19 03:42:18;;;;;;;26.15;22.55;;;20.40;99.90;;;;;;5047538;28;20045;-70
2023/08/19 03:44:44;;;;;;;25.33;22.70;;;20.40;99.90;;;;;;5031009;28;20064;-71
2023/08/19 03:47:13;;;;;;;26.00;22.80;;;20.40;99.90;;;;;;5046742;28;20049;-70
2023/08/19 03:49:39;;;;;;;27.60;23.25;;;20.40;99.90;;;;;;5030766;28;20072;-70
2023/08/19 03:52:06;;;;;;;27.88;22.48;;;20.40;99.90;;;;;;5046564;28;20052;-70
2023/08/19 03:54:32;;;;;;;29.35;23.10;;;20.40;99.90;;;;;;5030532;28;20052;-69
2023/08/19 03:56:58;;;;;;;26.00;23.23;;;20.40;99.90;;;;;;5048522;28;20044;-72
2023/08/19 03:59:24;;;;;;;26.85;23.02;;;20.40;99.90;;;;;;5047946;28;20053;-69
2023/08/19 04:01:50;;;;;;;26.65;23.40;;;20.40;99.90;;;;;;5047053;28;20045;-69
2023/08/19 04:04:16;;;;;;;28.45;22.15;;;20.40;99.90;;;;;;5047358;28;20684;-70
2023/08/19 04:06:41;;;;;;;24.40;20.83;;;20.40;99.90;;;;;;5048070;28;20041;-69
2023/08/19 04:09:08;;;;;;;24.00;21.55;;;20.40;99.90;;;;;;5047266;28;20064;-70
2023/08/19 04:11:34;;;;;;;24.35;21.80;;;20.40;99.90;;;;;;5045961;28;20409;-70
2023/08/19 04:13:59;;;;;;;28.83;23.67;;;20.40;99.90;;;;;;5074049;28;20052;-69
2023/08/19 04:16:25;;;;;;;25.48;21.52;;;20.40;99.90;;;;;;5047932;28;20147;-70
2023/08/19 04:18:51;;;;;;;23.95;21.52;;;20.40;99.90;;;;;;5047150;28;20103;-70
2023/08/19 04:21:17;;;;;;;27.95;21.50;;;20.40;99.90;;;;;;5047046;28;20072;-73
2023/08/19 04:23:43;;;;;;;26.58;22.83;;;20.40;99.90;;;;;;5045648;28;20118;-73
2023/08/19 04:26:08;;;;;;;22.52;20.20;;;20.40;99.90;;;;;;5039657;28;20087;-75
2023/08/19 04:28:34;;;;;;;24.83;22.20;;;20.40;99.90;;;;;;5044211;28;20040;-74
2023/08/19 04:31:08;;;;;;;28.13;22.58;;;20.40;99.90;;;;;;5045806;28;20048;-74
2023/08/19 04:33:35;;;;;;;25.50;21.52;;;20.40;99.90;;;;;;5046194;28;20091;-74
2023/08/19 04:36:02;;;;;;;25.02;20.17;;;20.40;99.90;;;;;;5047602;28;20048;-74
2023/08/19 04:38:29;;;;;;;24.10;21.17;;;20.40;99.90;;;;;;5045582;28;20045;-74
2023/08/19 04:40:56;;;;;;;27.88;21.42;;;20.40;99.90;;;;;;5045914;28;20064;-75
2023/08/19 04:43:22;;;;;;;23.80;20.70;;;20.40;99.90;;;;;;5029818;28;20592;-74
2023/08/19 04:45:48;;;;;;;23.08;20.42;;;20.40;99.90;;;;;;5043770;28;20119;-74
2023/08/19 04:48:14;;;;;;;23.50;19.70;;;20.40;99.90;;;;;;5079462;28;20072;-74
2023/08/19 04:50:40;;;;;;;24.35;20.10;;;20.40;99.90;;;;;;5043434;28;20090;-74
2023/08/19 04:53:06;;;;;;;22.25;19.35;;;20.40;99.90;;;;;;5029146;28;20477;-74
2023/08/19 04:55:32;;;;;;;24.63;19.83;;;20.40;99.90;;;;;;5045287;28;20115;-74
2023/08/19 04:57:58;;;;;;;24.80;20.27;;;20.40;99.90;;;;;;5029219;28;20121;-74
2023/08/19 05:00:24;;;;;;;23.65;20.35;;;20.40;99.90;;;;;;5046766;28;20052;-74
2023/08/19 05:02:50;;;;;;;22.27;19.83;;;20.40;99.90;;;;;;5045661;28;20041;-73
2023/08/19 05:05:16;;;;;;;24.80;18.63;;;20.40;99.90;;;;;;5047881;28;20055;-74
2023/08/19 05:07:42;;;;;;;20.83;18.35;;;20.50;99.90;;;;;;5045879;28;20048;-74
2023/08/19 05:10:09;;;;;;;23.75;19.38;;;20.50;99.90;;;;;;5045379;28;20502;-74
2023/08/19 05:12:35;;;;;;;20.45;17.80;;;20.50;99.90;;;;;;5045062;28;20144;-73
2023/08/19 05:15:01;;;;;;;21.85;18.13;;;20.50;99.90;;;;;;5039752;28;20407;-74
2023/08/19 05:17:27;;;;;;;21.02;17.33;;;20.50;99.90;;;;;;5044328;28;20040;-73
2023/08/19 05:19:55;;;;;;;22.38;18.08;;;20.60;99.90;;;;;;5045026;28;20045;-74
2023/08/19 05:22:24;;;;;;;19.98;17.50;;;20.50;99.90;;;;;;5045728;28;20043;-73
2023/08/19 05:24:50;;;;;;;20.45;17.60;;;20.60;99.90;;;;;;5045371;28;20041;-74
2023/08/19 05:27:15;;;;;;;20.60;16.17;;;20.60;99.90;;;;;;5045495;28;20319;-74
2023/08/19 05:29:41;;;;;;;22.02;16.60;;;20.60;99.90;;;;;;5045087;28;20425;-74
2023/08/19 05:32:07;;;;;;;19.02;17.00;;;20.60;99.90;;;;;;5041415;28;20105;-73
2023/08/19 05:34:33;;;;;;;20.95;16.17;;;20.60;99.90;;;;;;5043679;28;20041;-74
2023/08/19 05:37:00;;;;;;;21.73;16.13;;;20.60;99.90;;;;;;5045039;28;20049;-74
2023/08/19 05:39:26;;;;;;;19.98;15.70;;;20.60;99.90;;;;;;5046359;28;20045;-74
2023/08/19 05:41:51;;;;;;;22.45;15.98;;;20.60;99.90;;;;;;5044706;28;20040;-74
2023/08/19 05:44:17;;;;;;;19.83;15.80;;;20.70;99.90;;;;;;5029276;28;20049;-73
2023/08/19 05:46:43;;;;;;;21.02;15.75;;;20.70;99.90;;;;;;5046491;28;20055;-73
2023/08/19 05:49:08;;;;;;;17.75;15.00;;;20.70;99.90;;;;;;5029000;28;20040;-73
2023/08/19 05:51:34;;;;;;;18.50;15.77;;;20.70;99.90;;;;;;5043503;28;20080;-74
2023/08/19 05:54:01;;;;;;;22.48;15.82;;;20.80;99.90;;;;;;5043471;28;20044;-74
2023/08/19 05:56:27;;;;;;;18.52;13.88;;;20.70;99.90;;;;;;5044822;28;20045;-73
2023/08/19 05:58:53;;;;;;;18.38;14.82;;;20.80;99.90;;;;;;5043383;28;20513;-74
2023/08/19 06:01:19;;;;;;;19.05;14.27;;;20.80;99.90;;;;;;5044070;28;20044;-73
2023/08/19 06:03:44;;;;;;;17.05;14.02;;;20.80;99.90;;;;;;5043729;28;20041;-73
2023/08/19 06:06:10;;;;;;;17.02;14.40;;;20.80;99.90;;;;;;5044753;28;20076;-74
2023/08/19 06:08:36;;;;;;;18.05;14.68;;;20.90;99.90;;;;;;5028573;28;20041;-73
2023/08/19 06:11:06;;;;;;;15.30;13.02;;;20.90;99.90;;;;;;5046534;28;20040;-74
2023/08/19 06:13:33;;;;;;;15.63;13.77;;;20.90;99.90;;;;;;5044940;28;20052;-73
2023/08/19 06:16:00;;;;;;;15.68;12.05;;;20.90;99.90;;;;;;5025987;28;20045;-75
2023/08/19 06:18:26;;;;;;;17.50;13.00;;;20.90;99.90;;;;;;5045008;28;20516;-75
2023/08/19 06:20:52;;;;;;;17.50;12.50;;;21.00;99.90;;;;;;5045332;28;20191;-74
2023/08/19 06:23:19;;;;;;;16.70;11.93;;;21.00;99.90;;;;;;5044736;28;20128;-75
2023/08/19 06:25:47;;;;;;;16.08;11.50;;;21.00;99.90;;;;;;5044753;28;20052;-74
2023/08/19 06:28:13;;;;;;;17.10;12.73;;;21.00;99.90;;;;;;5044797;28;20041;-74
2023/08/19 06:30:39;;;;;;;14.25;12.15;;;21.10;99.90;;;;;;5044268;28;20048;-74
2023/08/19 06:33:05;;;;;;;13.82;11.13;;;21.10;99.90;;;;;;5044270;28;20060;-74
2023/08/19 06:35:32;;;;;;;18.75;12.18;;;21.10;99.90;;;;;;5043854;28;20104;-74
2023/08/19 06:38:03;;;;;;;13.88;10.55;;;21.10;99.90;;;;;;5045856;28;20033;-75
2023/08/19 06:40:30;;;;;;;;;;;21.20;99.90;;;;;;5046249;28;20044;-74
2023/08/19 06:42:58;;;;;;;17.08;10.98;;;21.20;99.90;;;;;;5044003;28;20438;-74
2023/08/19 06:45:25;;;;;;;16.92;12.27;;;21.20;99.90;;;;;;5045944;28;20048;-74
2023/08/19 06:47:53;;;;;;;15.02;11.88;;;21.20;99.90;;;;;;5028468;28;20068;-74
2023/08/19 06:50:19;;;;;;;15.23;10.63;;;21.20;99.90;;;;;;5042282;28;20494;-74
2023/08/19 06:52:45;;;;;;;18.20;11.20;;;21.20;99.90;;;;;;5044351;28;20045;-75
2023/08/19 06:55:12;;;;;;;15.73;11.15;;;21.20;99.90;;;;;;5044803;28;20087;-75
2023/08/19 06:57:47;;;;;;;15.85;11.00;;;21.30;99.90;;;;;;5044488;28;20048;-74
2023/08/19 07:00:14;;;;;;;16.10;11.27;;;21.30;99.90;;;;;;5045975;28;20045;-74
2023/08/19 07:02:40;;;;;;;16.48;10.23;;;21.30;99.90;;;;;;5044983;28;20052;-75
2023/08/19 07:05:14;;;;;;;17.38;10.95;;;21.30;99.90;;;;;;5044299;28;20136;-74
2023/08/19 07:07:47;;;;;;;13.48;9.75;;;21.30;99.90;;;;;;5044143;28;20033;-74
2023/08/19 07:10:19;;;;;;;17.45;9.52;;;21.30;99.90;;;;;;5044482;28;20068;-75
2023/08/19 07:12:46;;;;;;;13.82;9.23;;;21.30;99.90;;;;;;5041545;28;20045;-75
2023/08/19 07:15:12;;;;;;;14.75;9.63;;;21.40;99.90;;;;;;5044623;28;20426;-75
2023/08/19 07:17:46;;;;;;;12.95;9.13;;;21.40;99.90;;;;;;5027592;28;20595;-74
2023/08/19 07:20:17;;;;;;;13.10;9.10;;;21.40;99.90;;;;;;5044021;28;20506;-75
2023/08/19 07:22:46;;;;;;;11.82;9.13;;;21.40;99.90;;;;;;5027394;28;20121;-74
2023/08/19 07:25:12;;;;;;;13.98;9.15;;;21.40;99.90;;;;;;5043374;28;20053;-75
2023/08/19 07:27:40;;;;;;;12.63;9.70;;;21.50;99.90;;;;;;5044099;28;20088;-74
2023/08/19 07:30:07;;;;;;;15.40;8.88;;;21.50;99.90;;;;;;5045368;28;20044;-74
2023/08/19 07:32:33;;;;;;;16.58;8.68;;;21.50;99.90;;;;;;5043538;28;20605;-74
2023/08/19 07:34:59;;;;;;;13.20;8.07;;;21.60;99.90;;;;;;5045031;28;20382;-75
2023/08/19 07:37:28;;;;;;;12.57;8.00;;;21.60;99.90;;;;;;5043731;28;20047;-74
2023/08/19 07:39:54;;;;;;;10.80;8.20;;;21.60;99.90;;;;;;5044983;28;20041;-75
2023/08/19 07:42:20;;;;;;;13.23;7.97;;;21.70;99.90;;;;;;5045550;28;20482;-74
2023/08/19 07:44:46;;;;;;;12.05;8.20;;;21.70;99.90;;;;;;5043883;28;20706;-74
2023/08/19 07:47:11;;;;;;;12.98;8.52;;;21.70;99.90;;;;;;5044009;28;20049;-74
2023/08/19 07:49:38;;;;;;;13.65;7.85;;;21.70;99.90;;;;;;5045419;28;20095;-74
2023/08/19 07:52:05;;;;;;;15.15;8.88;;;21.80;99.90;;;;;;5044535;28;20183;-75
2023/08/19 07:54:31;;;;;;;15.20;8.15;;;21.80;99.90;;;;;;5045494;28;20037;-75
2023/08/19 07:56:58;;;;;;;13.10;7.65;;;21.80;99.90;;;;;;5043954;28;20098;-75
2023/08/19 07:59:25;;;;;;;11.10;7.93;;;21.80;99.90;;;;;;5044124;28;20433;-75
2023/08/19 08:01:52;;;;;;;12.27;8.43;;;21.90;99.90;;;;;;5043813;28;20055;-71
2023/08/19 08:04:18;;;;;;;14.13;7.65;;;21.90;99.90;;;;;;5027021;28;20489;-71
2023/08/19 08:06:45;;;;;;;10.50;7.55;;;21.90;99.90;;;;;;5044768;28;20071;-71
2023/08/19 08:09:11;;;;;;;10.73;7.07;;;21.90;99.90;;;;;;5043145;28;20043;-71
2023/08/19 08:11:37;;;;;;;11.57;7.57;;;22.00;99.90;;;;;;5043756;28;20048;-71
2023/08/19 08:14:03;;;;;;;10.90;7.30;;;22.00;99.90;;;;;;5027350;28;20134;-71
2023/08/19 08:16:29;;;;;;;11.75;7.50;;;22.00;99.90;;;;;;5047396;28;20051;-71
2023/08/19 08:18:55;;;;;;;12.05;7.63;;;22.10;99.90;;;;;;5030741;28;20529;-70
2023/08/19 08:21:21;;;;;;;11.48;7.35;;;22.10;99.90;;;;;;5030949;28;20086;-74
2023/08/19 08:23:47;;;;;;;11.85;7.68;;;22.20;99.90;;;;;;5046427;28;20043;-74
2023/08/19 08:26:13;;;;;;;10.95;6.82;;;22.20;99.90;;;;;;5047121;28;20076;-74
2023/08/19 08:28:38;;;;;;;11.18;7.53;;;22.20;99.90;;;;;;5030510;28;20068;-74
2023/08/19 08:31:04;;;;;;;13.85;7.45;;;22.20;99.90;;;;;;5030828;28;20041;-74
2023/08/19 08:33:30;;;;;;;10.55;7.40;;;22.30;99.90;;;;;;5045855;28;20041;-74
2023/08/19 08:35:56;;;;;;;12.65;7.30;;;22.30;99.90;;;;;;5047729;28;20119;-74
2023/08/19 08:38:22;;;;;;;11.50;7.20;;;22.30;99.90;;;;;;5047332;28;20045;-75
2023/08/19 08:40:48;;;;;;;14.70;7.95;;;22.40;99.90;;;;;;5046451;28;20044;-74
2023/08/19 08:43:15;;;;;;;13.57;7.15;;;22.50;99.90;;;;;;5046534;28;20494;-74
2023/08/19 08:45:41;;;;;;;11.60;7.35;;;22.60;99.90;;;;;;5046010;28;20048;-75
2023/08/19 08:48:09;;;;;;;10.98;6.93;;;22.60;99.90;;;;;;5029571;28;20044;-75
2023/08/19 08:50:35;;;;;;;10.38;7.07;;;22.70;99.90;;;;;;5046485;28;20114;-74
2023/08/19 08:53:01;;;;;;;10.68;6.65;;;22.80;99.90;;;;;;5047342;28;20052;-75
2023/08/19 08:55:27;;;;;;;11.82;6.38;;;22.90;99.90;;;;;;5029546;28;20101;-74
2023/08/19 08:57:53;;;;;;;15.85;7.57;;;23.00;99.90;;;;;;5046437;28;20505;-75
2023/08/19 09:00:18;;;;;;;11.88;6.85;;;23.10;99.90;;;;;;5047396;28;20446;-74
2023/08/19 09:02:46;;;;;;;10.40;6.25;;;23.20;99.90;;;;;;5046119;28;20126;-75
2023/08/19 09:05:13;;;;;;;12.38;6.25;;;23.30;99.90;;;;;;5048088;28;20088;-75
2023/08/19 09:07:40;;;;;;;10.93;6.28;;;23.40;99.90;;;;;;5046390;28;20040;-74
2023/08/19 09:10:16;;;;;;;12.27;6.10;;;23.50;99.90;;;;;;5048367;28;20063;-75
2023/08/19 09:12:47;;;;;;;11.55;5.80;;;23.70;99.90;;;;;;5046571;28;20049;-75
2023/08/19 09:15:15;;;;;;;11.07;5.35;;;23.70;99.90;;;;;;5046514;28;20052;-75
2023/08/19 09:17:42;;;;;;;9.60;6.03;;;23.80;99.90;;;;;;5046125;28;20076;-74
2023/08/19 09:20:11;;;;;;;8.63;5.40;;;23.80;99.90;;;;;;5048333;28;20041;-74
2023/08/19 09:22:41;;;;;;;9.43;5.20;;;23.80;99.90;;;;;;5046165;28;20112;-75
2023/08/19 09:25:08;;;;;;;11.38;5.53;;;23.90;99.90;;;;;;5046860;28;20110;-75
2023/08/19 09:27:33;;;;;;;9.55;5.07;;;23.90;99.90;;;;;;5046629;28;20421;-75
2023/08/19 09:29:59;;;;;;;9.88;5.20;;;23.90;99.90;;;;;;5047339;28;20037;-74
2023/08/19 09:32:35;;;;;;;9.50;4.97;;;24.00;99.90;;;;;;5029359;28;20565;-75
2023/08/19 09:35:12;;;;;;;9.05;5.10;;;24.00;99.90;;;;;;5044771;28;20777;-74
2023/08/19 09:37:40;;;;;;;10.38;5.03;;;24.20;99.90;;;;;;5028945;28;20061;-75
2023/08/19 09:40:08;;;;;;;12.27;5.43;;;24.40;99.90;;;;;;5045854;28;20053;-74
2023/08/19 09:42:35;;;;;;;9.88;5.00;;;24.50;99.90;;;;;;5045965;28;20044;-75
2023/08/19 09:45:04;;;;;;;9.18;4.97;;;24.60;99.90;;;;;;5044980;28;20778;-75
2023/08/19 09:47:31;;;;;;;13.38;5.00;;;24.70;99.90;;;;;;5046962;28;20041;-75
2023/08/19 09:49:57;;;;;;;10.90;4.80;;;24.80;99.90;;;;;;5045821;28;20398;-75
2023/08/19 09:52:23;;;;;;;9.38;5.15;;;24.80;99.90;;;;;;5045438;28;20037;-74
2023/08/19 09:54:53;;;;;;;11.32;6.00;;;24.90;99.90;;;;;;5028526;28;20094;-75
2023/08/19 09:57:33;;;;;;;9.45;5.78;;;25.00;99.90;;;;;;5043428;28;20041;-74
2023/08/19 10:00:00;;;;;;;8.13;5.10;;;25.00;99.90;;;;;;5044766;28;20041;-75
2023/08/19 10:02:28;;;;;;;11.07;5.60;;;25.00;99.90;;;;;;5045057;28;20353;-75
2023/08/19 10:04:55;;;;;;;8.68;4.82;;;25.00;99.90;;;;;;5046029;28;20037;-74
2023/08/19 10:07:27;;;;;;;12.27;6.18;;;25.00;99.90;;;;;;5045667;28;20045;-75
2023/08/19 10:09:54;;;;;;;10.27;5.50;;;25.00;99.90;;;;;;5076539;28;20494;-75
2023/08/19 10:12:22;;;;;;;10.18;6.40;;;25.00;99.90;;;;;;5045142;28;20460;-75
2023/08/19 10:14:51;;;;;;;11.40;4.93;;;25.00;99.90;;;;;;5045085;28;20041;-74
2023/08/19 10:17:20;;;;;;;12.27;5.93;;;25.00;99.90;;;;;;5045167;28;20049;-76
2023/08/19 10:19:59;;;;;;;11.18;6.70;;;25.00;99.90;;;;;;5045974;28;20037;-75
2023/08/19 10:22:27;;;;;;;16.83;6.63;;;24.90;99.90;;;;;;5044148;28;20040;-76
2023/08/19 10:24:55;;;;;;;10.18;6.40;;;24.90;99.90;;;;;;5045174;28;20041;-76
2023/08/19 10:27:21;;;;;;;12.82;7.43;;;24.90;99.90;;;;;;5045100;28;20052;-74
2023/08/19 10:29:57;;;;;;;13.52;6.65;;;24.80;99.90;;;;;;5045062;28;20102;-74
2023/08/19 10:32:33;;;;;;;13.18;6.90;;;24.80;99.90;;;;;;5043485;28;20413;-76
2023/08/19 10:35:08;;;;;;;11.10;6.00;;;24.80;99.90;;;;;;5044202;28;20037;-75
2023/08/19 10:37:35;;;;;;;9.55;6.45;;;24.70;99.90;;;;;;5044244;28;20134;-75
2023/08/19 10:40:17;;;;;;;11.15;6.25;;;24.70;99.90;;;;;;5045075;28;20045;-75
2023/08/19 10:43:01;;;;;;;12.13;6.55;;;24.80;99.90;;;;;;5044866;28;20769;-75
2023/08/19 10:45:34;;;;;;;9.43;6.22;;;24.80;99.90;;;;;;5027955;28;20075;-75
2023/08/19 10:48:00;;;;;;;13.48;6.57;;;24.80;99.90;;;;;;5043472;28;20106;-74
2023/08/19 10:50:26;;;;;;;11.45;6.28;;;24.80;99.90;;;;;;5044382;28;20064;-74
2023/08/19 10:53:04;;;;;;;12.38;6.53;;;24.80;99.90;;;;;;5043364;28;20045;-75
2023/08/19 10:55:55;;;;;;;13.70;7.00;;;24.90;99.90;;;;;;5043553;28;20052;-75
2023/08/19 10:58:22;;;;;;;11.30;7.03;;;24.90;99.90;;;;;;5044146;28;20068;-75
2023/08/19 11:00:49;;;;;;;11.95;7.38;;;24.90;99.90;;;;;;5027834;28;20040;-75
2023/08/19 11:03:18;;;;;;;10.80;8.02;;;24.90;99.90;;;;;;5045107;28;20041;-75
2023/08/19 11:05:51;;;;;;;11.13;6.67;;;24.90;99.90;;;;;;5041872;28;20059;-74
2023/08/19 11:08:18;;;;;;;15.85;9.13;;;24.90;99.90;;;;;;5043880;28;20308;-75
2023/08/19 11:10:47;;;;;;;11.27;8.98;;;24.80;99.90;;;;;;5045610;28;20044;-74
2023/08/19 11:13:16;;;;;;;15.20;9.32;;;24.80;99.90;;;;;;5026692;28;20129;-75
2023/08/19 11:15:43;;;;;;;14.27;9.15;;;24.90;99.90;;;;;;5045202;28;20041;-74
2023/08/19 11:18:09;;;;;;;14.85;9.88;;;25.00;99.90;;;;;;5043838;28;20049;-75
2023/08/19 11:20:36;;;;;;;13.98;9.77;;;25.10;99.90;;;;;;5043712;28;20040;-75
2023/08/19 11:23:02;;;;;;;17.13;9.43;;;25.20;99.90;;;;;;5043937;28;20132;-75
2023/08/19 11:25:38;;;;;;;17.05;10.18;;;25.40;99.90;;;;;;5043743;28;20083;-74
2023/08/19 11:28:05;;;;;;;14.45;9.82;;;25.50;99.90;;;;;;5044126;28;20049;-75
2023/08/19 11:30:31;;;;;;;17.23;11.00;;;25.50;99.90;;;;;;5038801;28;20447;-75
2023/08/19 11:32:57;;;;;;;14.95;10.40;;;25.60;99.90;;;;;;5041155;28;20041;-75
2023/08/19 11:35:23;;;;;;;16.60;11.23;;;25.70;99.90;;;;;;5040897;28;20705;-75
2023/08/19 11:37:49;;;;;;;16.20;11.57;;;25.70;99.90;;;;;;5040343;28;20045;-74
2023/08/19 11:40:14;;;;;;;14.35;12.20;;;25.80;99.90;;;;;;5039790;28;20048;-75
2023/08/19 11:42:40;;;;;;;15.68;12.35;;;25.80;99.90;;;;;;5041269;28;20746;-75
2023/08/19 11:45:10;;;;;;;21.63;12.80;;;25.80;99.90;;;;;;5035126;28;20171;-74
2023/08/19 11:47:36;;;;;;;15.95;12.85;;;25.80;99.90;;;;;;5024259;28;20115;-75
2023/08/19 11:50:06;;;;;;;17.48;12.93;;;25.80;99.90;;;;;;5047766;28;20045;-75
2023/08/19 11:52:32;;;;;;;19.65;14.02;;;25.90;99.90;;;;;;5027756;28;20068;-75
2023/08/19 11:55:08;;;;;;;15.68;13.02;;;25.90;99.90;;;;;;5042426;28;20175;-75
2023/08/19 11:57:35;;;;;;;20.80;16.20;;;25.90;99.90;;;;;;5045760;28;20048;-75
2023/08/19 12:00:01;;;;;;;22.77;17.52;;;25.90;99.90;;;;;;5042219;28;20053;-76
2023/08/19 12:02:27;;;;;;;25.40;20.10;;;25.90;99.90;;;;;;5041441;28;20124;-75
2023/08/19 12:04:56;;;;;;;26.48;21.13;;;25.80;99.90;;;;;;5043911;28;20119;-75
2023/08/19 12:07:27;;;;;;;28.33;20.63;;;25.80;99.90;;;;;;5039294;28;20055;-75
2023/08/19 12:09:59;;;;;;;27.25;20.83;;;25.80;99.90;;;;;;5044230;28;20542;-75
2023/08/19 12:12:28;;;;;;;31.15;25.83;;;25.80;99.90;;;;;;5026832;28;20127;-75
2023/08/19 12:14:55;;;;;;;33.33;27.00;;;25.70;99.90;;;;;;5073292;28;20120;-75
2023/08/19 12:17:21;;;;;;;36.78;28.83;;;25.70;99.90;;;;;;5072286;28;20068;-74
2023/08/19 12:19:47;;;;;;;34.85;28.48;;;25.60;99.90;;;;;;5045762;28;20148;-75
2023/08/19 12:22:14;;;;;;;38.00;29.92;;;25.60;99.90;;;;;;5039135;28;20037;-75
2023/08/19 12:24:41;;;;;;;37.85;31.25;;;25.50;99.90;;;;;;5038452;28;20049;-75
2023/08/19 12:27:07;;;;;;;40.90;31.80;;;25.50;99.90;;;;;;5042576;28;20041;-74
2023/08/19 12:29:33;;;;;;;39.00;29.85;;;25.40;99.90;;;;;;5040608;28;20036;-75
2023/08/19 12:31:59;;;;;;;39.63;27.10;;;25.30;99.90;;;;;;5022436;28;20051;-75